sensor_id;sensor_type;location;lat;lon;timestamp;temperature;humidity
14749;DHT22;7466;53.574;9.976;2022-09-16T00:00:57;10.80;99.90
14749;DHT22;7466;53.574;9.976;2022-09-16T00:03:24;10.80;99.90
14749;DHT22;7466;53.574;9.976;2022-09-16T00:05:52;10.80;99.90
14749;DHT22;7466;53.574;9.976;2022-09-16T00:08:20;10.80;99.90
14749;DHT22;7466;53.574;9.976;2022-09-16T00:10:47;10.80;99.90
14749;DHT22;7466;53.574;9.976;2022-09-16T00:13:14;10.70;99.90
14749;DHT22;7466;53.574;9.976;2022-09-16T00:15:43;10.70;99.90
14749;DHT22;7466;53.574;9.976;2022-09-16T00:18:10;10.70;99.90
14749;DHT22;7466;53.574;9.976;2022-09-16T00:20:42;10.70;99.90
14749;DHT22;7466;53.574;9.976;2022-09-16T00:23:09;10.70;99.90
14749;DHT22;7466;53.574;9.976;2022-09-16T00:25:36;10.70;99.90
14749;DHT22;7466;53.574;9.976;2022-09-16T00:28:03;10.70;99.90
14749;DHT22;7466;53.574;9.976;2022-09-16T00:30:30;10.70;99.90
14749;DHT22;7466;53.574;9.976;2022-09-16T00:32:58;10.70;99.90
14749;DHT22;7466;53.574;9.976;2022-09-16T00:35:25;10.70;99.90
14749;DHT22;7466;53.574;9.976;2022-09-16T00:37:52;10.70;99.90
14749;DHT22;7466;53.574;9.976;2022-09-16T00:40:18;10.70;99.90
14749;DHT22;7466;53.574;9.976;2022-09-16T00:42:45;10.80;99.90
14749;DHT22;7466;53.574;9.976;2022-09-16T00:45:14;10.80;99.90
14749;DHT22;7466;53.574;9.976;2022-09-16T00:47:47;10.80;99.90
14749;DHT22;7466;53.574;9.976;2022-09-16T00:50:20;10.90;99.90
14749;DHT22;7466;53.574;9.976;2022-09-16T00:52:48;10.80;99.90
14749;DHT22;7466;53.574;9.976;2022-09-16T00:55:20;10.80;99.90
14749;DHT22;7466;53.574;9.976;2022-09-16T00:57:50;10.80;99.90
14749;DHT22;7466;53.574;9.976;2022-09-16T01:00:17;10.70;99.90
14749;DHT22;7466;53.574;9.976;2022-09-16T01:02:45;10.70;99.90
14749;DHT22;7466;53.574;9.976;2022-09-16T01:05:15;10.70;99.90
14749;DHT22;7466;53.574;9.976;2022-09-16T01:07:45;10.70;99.90
14749;DHT22;7466;53.574;9.976;2022-09-16T01:10:13;10.70;99.90
14749;DHT22;7466;53.574;9.976;2022-09-16T01:12:41;10.70;99.90
14749;DHT22;7466;53.574;9.976;2022-09-16T01:15:11;10.70;99.90
14749;DHT22;7466;53.574;9.976;2022-09-16T01:17:59;10.70;99.90
14749;DHT22;7466;53.574;9.976;2022-09-16T01:20:53;10.80;99.90
14749;DHT22;7466;53.574;9.976;2022-09-16T01:23:40;10.80;99.90
14749;DHT22;7466;53.574;9.976;2022-09-16T01:26:24;10.80;99.90
14749;DHT22;7466;53.574;9.976;2022-09-16T01:29:25;10.70;99.90
14749;DHT22;7466;53.574;9.976;2022-09-16T01:32:03;10.70;99.90
14749;DHT22;7466;53.574;9.976;2022-09-16T01:34:40;10.70;99.90
14749;DHT22;7466;53.574;9.976;2022-09-16T01:37:14;10.70;99.90
14749;DHT22;7466;53.574;9.976;2022-09-16T01:39:48;10.60;99.90
14749;DHT22;7466;53.574;9.976;2022-09-16T01:42:26;10.60;99.90
14749;DHT22;7466;53.574;9.976;2022-09-16T01:45:01;10.60;99.90
14749;DHT22;7466;53.574;9.976;2022-09-16T01:47:35;10.60;99.90
14749;DHT22;7466;53.574;9.976;2022-09-16T01:50:08;10.60;99.90
14749;DHT22;7466;53.574;9.976;2022-09-16T01:52:43;10.60;99.90
14749;DHT22;7466;53.574;9.976;2022-09-16T01:55:16;10.60;99.90
14749;DHT22;7466;53.574;9.976;2022-09-16T01:57:51;10.50;99.90
14749;DHT22;7466;53.574;9.976;2022-09-16T02:00:19;10.50;99.90
14749;DHT22;7466;53.574;9.976;2022-09-16T02:02:50;10.50;99.90
14749;DHT22;7466;53.574;9.976;2022-09-16T02:05:22;10.50;99.90
14749;DHT22;7466;53.574;9.976;2022-09-16T02:07:53;10.40;99.90
14749;DHT22;7466;53.574;9.976;2022-09-16T02:10:24;10.40;99.90
14749;DHT22;7466;53.574;9.976;2022-09-16T02:12:57;10.40;99.90
14749;DHT22;7466;53.574;9.976;2022-09-16T02:15:25;10.40;99.90
14749;DHT22;7466;53.574;9.976;2022-09-16T02:17:58;10.40;99.90
14749;DHT22;7466;53.574;9.976;2022-09-16T02:20:28;10.50;99.90
14749;DHT22;7466;53.574;9.976;2022-09-16T02:22:59;10.50;99.90
14749;DHT22;7466;53.574;9.976;2022-09-16T02:25:32;10.40;99.90
14749;DHT22;7466;53.574;9.976;2022-09-16T02:28:04;10.40;99.90
14749;DHT22;7466;53.574;9.976;2022-09-16T02:30:32;10.40;99.90
14749;DHT22;7466;53.574;9.976;2022-09-16T02:33:05;10.40;99.90
14749;DHT22;7466;53.574;9.976;2022-09-16T02:35:34;10.40;99.90
14749;DHT22;7466;53.574;9.976;2022-09-16T02:38:06;10.40;99.90
14749;DHT22;7466;53.574;9.976;2022-09-16T02:40:39;10.40;99.90
14749;DHT22;7466;53.574;9.976;2022-09-16T02:43:07;10.40;99.90
14749;DHT22;7466;53.574;9.976;2022-09-16T02:45:46;10.40;99.90
14749;DHT22;7466;53.574;9.976;2022-09-16T02:48:21;10.50;99.90
14749;DHT22;7466;53.574;9.976;2022-09-16T02:50:54;10.50;99.90
14749;DHT22;7466;53.574;9.976;2022-09-16T02:53:32;10.50;99.90
14749;DHT22;7466;53.574;9.976;2022-09-16T02:56:08;10.40;99.90
14749;DHT22;7466;53.574;9.976;2022-09-16T02:58:37;10.40;99.90
14749;DHT22;7466;53.574;9.976;2022-09-16T03:01:04;10.40;99.90
14749;DHT22;7466;53.574;9.976;2022-09-16T03:03:33;10.40;99.90
14749;DHT22;7466;53.574;9.976;2022-09-16T03:06:12;10.40;99.90
14749;DHT22;7466;53.574;9.976;2022-09-16T03:08:39;10.40;99.90
14749;DHT22;7466;53.574;9.976;2022-09-16T03:11:18;10.40;99.90
14749;DHT22;7466;53.574;9.976;2022-09-16T03:13:53;10.40;99.90
14749;DHT22;7466;53.574;9.976;2022-09-16T03:16:28;10.40;99.90
14749;DHT22;7466;53.574;9.976;2022-09-16T03:19:06;10.40;99.90
14749;DHT22;7466;53.574;9.976;2022-09-16T03:21:43;10.40;99.90
14749;DHT22;7466;53.574;9.976;2022-09-16T03:24:16;10.40;99.90
14749;DHT22;7466;53.574;9.976;2022-09-16T03:26:46;10.30;99.90
14749;DHT22;7466;53.574;9.976;2022-09-16T03:29:20;10.30;99.90
14749;DHT22;7466;53.574;9.976;2022-09-16T03:31:52;10.20;99.90
14749;DHT22;7466;53.574;9.976;2022-09-16T03:34:26;10.30;99.90
14749;DHT22;7466;53.574;9.976;2022-09-16T03:36:58;10.20;99.90
14749;DHT22;7466;53.574;9.976;2022-09-16T03:39:25;10.20;99.90
14749;DHT22;7466;53.574;9.976;2022-09-16T03:41:52;10.20;99.90
14749;DHT22;7466;53.574;9.976;2022-09-16T03:44:28;10.20;99.90
14749;DHT22;7466;53.574;9.976;2022-09-16T03:46:56;10.10;99.90
14749;DHT22;7466;53.574;9.976;2022-09-16T03:49:24;10.20;99.90
14749;DHT22;7466;53.574;9.976;2022-09-16T03:51:50;10.20;99.90
14749;DHT22;7466;53.574;9.976;2022-09-16T03:54:17;10.20;99.90
14749;DHT22;7466;53.574;9.976;2022-09-16T03:56:44;10.20;99.90
14749;DHT22;7466;53.574;9.976;2022-09-16T03:59:11;10.20;99.90
14749;DHT22;7466;53.574;9.976;2022-09-16T04:01:38;10.20;99.90
14749;DHT22;7466;53.574;9.976;2022-09-16T04:04:05;10.20;99.90
14749;DHT22;7466;53.574;9.976;2022-09-16T04:06:33;10.30;99.90
14749;DHT22;7466;53.574;9.976;2022-09-16T04:09:01;10.30;99.90
14749;DHT22;7466;53.574;9.976;2022-09-16T04:11:28;10.30;99.90
14749;DHT22;7466;53.574;9.976;2022-09-16T04:13:56;10.30;99.90
14749;DHT22;7466;53.574;9.976;2022-09-16T04:16:23;10.30;99.90
14749;DHT22;7466;53.574;9.976;2022-09-16T04:18:50;10.30;99.90
14749;DHT22;7466;53.574;9.976;2022-09-16T04:21:17;10.30;99.90
14749;DHT22;7466;53.574;9.976;2022-09-16T04:23:45;10.20;99.90
14749;DHT22;7466;53.574;9.976;2022-09-16T04:26:13;10.20;99.90
14749;DHT22;7466;53.574;9.976;2022-09-16T04:28:39;10.20;99.90
14749;DHT22;7466;53.574;9.976;2022-09-16T04:31:10;10.20;99.90
14749;DHT22;7466;53.574;9.976;2022-09-16T04:33:38;10.20;99.90
14749;DHT22;7466;53.574;9.976;2022-09-16T04:36:06;10.20;99.90
14749;DHT22;7466;53.574;9.976;2022-09-16T04:38:34;10.10;99.90
14749;DHT22;7466;53.574;9.976;2022-09-16T04:41:04;10.10;99.90
14749;DHT22;7466;53.574;9.976;2022-09-16T04:43:32;10.00;99.90
14749;DHT22;7466;53.574;9.976;2022-09-16T04:45:59;10.10;99.90
14749;DHT22;7466;53.574;9.976;2022-09-16T04:48:27;10.00;99.90
14749;DHT22;7466;53.574;9.976;2022-09-16T04:50:53;10.00;99.90
14749;DHT22;7466;53.574;9.976;2022-09-16T04:53:20;10.00;99.90
14749;DHT22;7466;53.574;9.976;2022-09-16T04:55:47;10.00;99.90
14749;DHT22;7466;53.574;9.976;2022-09-16T04:58:15;10.10;99.90
14749;DHT22;7466;53.574;9.976;2022-09-16T05:00:42;10.10;99.90
14749;DHT22;7466;53.574;9.976;2022-09-16T05:03:09;10.10;99.90
14749;DHT22;7466;53.574;9.976;2022-09-16T05:05:36;10.10;99.90
14749;DHT22;7466;53.574;9.976;2022-09-16T05:08:03;10.10;99.90
14749;DHT22;7466;53.574;9.976;2022-09-16T05:10:30;10.10;99.90
14749;DHT22;7466;53.574;9.976;2022-09-16T05:12:56;10.10;99.90
14749;DHT22;7466;53.574;9.976;2022-09-16T05:15:24;10.10;99.90
14749;DHT22;7466;53.574;9.976;2022-09-16T05:17:51;10.10;99.90
14749;DHT22;7466;53.574;9.976;2022-09-16T05:20:18;10.10;99.90
14749;DHT22;7466;53.574;9.976;2022-09-16T05:22:47;10.20;99.90
14749;DHT22;7466;53.574;9.976;2022-09-16T05:25:15;10.20;99.90
14749;DHT22;7466;53.574;9.976;2022-09-16T05:27:42;10.20;99.90
14749;DHT22;7466;53.574;9.976;2022-09-16T05:30:10;10.20;99.90
14749;DHT22;7466;53.574;9.976;2022-09-16T05:32:40;10.20;99.90
14749;DHT22;7466;53.574;9.976;2022-09-16T05:35:08;10.20;99.90
14749;DHT22;7466;53.574;9.976;2022-09-16T05:37:35;10.20;99.90
14749;DHT22;7466;53.574;9.976;2022-09-16T05:40:02;10.20;99.90
14749;DHT22;7466;53.574;9.976;2022-09-16T05:42:29;10.30;99.90
14749;DHT22;7466;53.574;9.976;2022-09-16T05:44:56;10.30;99.90
14749;DHT22;7466;53.574;9.976;2022-09-16T05:47:22;10.30;99.90
14749;DHT22;7466;53.574;9.976;2022-09-16T05:49:51;10.30;99.90
14749;DHT22;7466;53.574;9.976;2022-09-16T05:52:19;10.30;99.90
14749;DHT22;7466;53.574;9.976;2022-09-16T05:54:46;10.30;99.90
14749;DHT22;7466;53.574;9.976;2022-09-16T05:57:13;10.30;99.90
14749;DHT22;7466;53.574;9.976;2022-09-16T05:59:40;10.30;99.90
14749;DHT22;7466;53.574;9.976;2022-09-16T06:02:07;10.30;99.90
14749;DHT22;7466;53.574;9.976;2022-09-16T06:04:36;10.30;99.90
14749;DHT22;7466;53.574;9.976;2022-09-16T06:07:05;10.30;99.90
14749;DHT22;7466;53.574;9.976;2022-09-16T06:09:32;10.30;99.90
14749;DHT22;7466;53.574;9.976;2022-09-16T06:11:59;10.40;99.90
14749;DHT22;7466;53.574;9.976;2022-09-16T06:14:26;10.40;99.90
14749;DHT22;7466;53.574;9.976;2022-09-16T06:16:53;10.40;99.90
14749;DHT22;7466;53.574;9.976;2022-09-16T06:19:19;10.50;99.90
14749;DHT22;7466;53.574;9.976;2022-09-16T06:21:47;10.50;99.90
14749;DHT22;7466;53.574;9.976;2022-09-16T06:24:16;10.50;99.90
14749;DHT22;7466;53.574;9.976;2022-09-16T06:26:44;10.50;99.90
14749;DHT22;7466;53.574;9.976;2022-09-16T06:29:12;10.60;99.90
14749;DHT22;7466;53.574;9.976;2022-09-16T06:31:39;10.70;99.90
14749;DHT22;7466;53.574;9.976;2022-09-16T06:34:07;10.70;99.90
14749;DHT22;7466;53.574;9.976;2022-09-16T06:36:38;10.80;99.90
14749;DHT22;7466;53.574;9.976;2022-09-16T06:39:05;10.90;99.90
14749;DHT22;7466;53.574;9.976;2022-09-16T06:41:34;10.80;99.90
14749;DHT22;7466;53.574;9.976;2022-09-16T06:44:01;10.80;99.90
14749;DHT22;7466;53.574;9.976;2022-09-16T06:46:29;10.80;99.90
14749;DHT22;7466;53.574;9.976;2022-09-16T06:48:57;10.90;99.90
14749;DHT22;7466;53.574;9.976;2022-09-16T06:51:25;11.00;99.90
14749;DHT22;7466;53.574;9.976;2022-09-16T06:53:54;11.10;99.90
14749;DHT22;7466;53.574;9.976;2022-09-16T06:56:24;11.20;99.90
14749;DHT22;7466;53.574;9.976;2022-09-16T06:58:54;11.20;99.90
14749;DHT22;7466;53.574;9.976;2022-09-16T07:01:23;11.30;99.90
14749;DHT22;7466;53.574;9.976;2022-09-16T07:03:51;11.30;99.90
14749;DHT22;7466;53.574;9.976;2022-09-16T07:06:20;11.40;99.90
14749;DHT22;7466;53.574;9.976;2022-09-16T07:08:47;11.60;99.90
14749;DHT22;7466;53.574;9.976;2022-09-16T07:11:16;11.60;99.90
14749;DHT22;7466;53.574;9.976;2022-09-16T07:13:44;11.60;99.90
14749;DHT22;7466;53.574;9.976;2022-09-16T07:16:14;11.60;99.90
14749;DHT22;7466;53.574;9.976;2022-09-16T07:18:41;11.60;99.90
14749;DHT22;7466;53.574;9.976;2022-09-16T07:21:10;11.60;99.90
14749;DHT22;7466;53.574;9.976;2022-09-16T07:23:38;11.70;99.90
14749;DHT22;7466;53.574;9.976;2022-09-16T07:26:06;11.70;99.90
14749;DHT22;7466;53.574;9.976;2022-09-16T07:28:34;11.80;99.90
14749;DHT22;7466;53.574;9.976;2022-09-16T07:31:01;11.90;99.90
14749;DHT22;7466;53.574;9.976;2022-09-16T07:33:30;12.00;99.90
14749;DHT22;7466;53.574;9.976;2022-09-16T07:35:58;12.10;99.90
14749;DHT22;7466;53.574;9.976;2022-09-16T07:38:26;12.10;99.90
14749;DHT22;7466;53.574;9.976;2022-09-16T07:40:53;12.10;99.90
14749;DHT22;7466;53.574;9.976;2022-09-16T07:43:20;12.10;99.90
14749;DHT22;7466;53.574;9.976;2022-09-16T07:45:54;12.20;99.90
14749;DHT22;7466;53.574;9.976;2022-09-16T07:48:21;12.30;99.90
14749;DHT22;7466;53.574;9.976;2022-09-16T07:50:55;12.30;99.90
14749;DHT22;7466;53.574;9.976;2022-09-16T07:53:22;12.30;99.90
14749;DHT22;7466;53.574;9.976;2022-09-16T07:55:49;12.40;99.90
14749;DHT22;7466;53.574;9.976;2022-09-16T07:58:16;12.60;99.90
14749;DHT22;7466;53.574;9.976;2022-09-16T08:00:43;12.80;99.90
14749;DHT22;7466;53.574;9.976;2022-09-16T08:03:10;12.90;99.90
14749;DHT22;7466;53.574;9.976;2022-09-16T08:05:37;13.10;99.90
14749;DHT22;7466;53.574;9.976;2022-09-16T08:08:05;13.20;99.90
14749;DHT22;7466;53.574;9.976;2022-09-16T08:10:32;13.30;99.90
14749;DHT22;7466;53.574;9.976;2022-09-16T08:12:59;13.20;99.90
14749;DHT22;7466;53.574;9.976;2022-09-16T08:15:29;13.00;99.90
14749;DHT22;7466;53.574;9.976;2022-09-16T08:17:56;13.00;99.90
14749;DHT22;7466;53.574;9.976;2022-09-16T08:20:23;13.20;99.90
14749;DHT22;7466;53.574;9.976;2022-09-16T08:22:50;13.30;99.90
14749;DHT22;7466;53.574;9.976;2022-09-16T08:25:18;13.40;99.90
14749;DHT22;7466;53.574;9.976;2022-09-16T08:27:45;13.40;99.90
14749;DHT22;7466;53.574;9.976;2022-09-16T08:30:13;13.40;99.90
14749;DHT22;7466;53.574;9.976;2022-09-16T08:32:40;13.30;99.90
14749;DHT22;7466;53.574;9.976;2022-09-16T08:35:07;13.40;99.90
14749;DHT22;7466;53.574;9.976;2022-09-16T08:37:34;13.50;99.90
14749;DHT22;7466;53.574;9.976;2022-09-16T08:40:01;13.60;99.90
14749;DHT22;7466;53.574;9.976;2022-09-16T08:42:48;13.70;99.90
14749;DHT22;7466;53.574;9.976;2022-09-16T08:45:22;14.00;99.90
14749;DHT22;7466;53.574;9.976;2022-09-16T08:48:00;14.20;99.90
14749;DHT22;7466;53.574;9.976;2022-09-16T08:50:34;14.00;99.90
14749;DHT22;7466;53.574;9.976;2022-09-16T08:53:09;13.80;99.90
14749;DHT22;7466;53.574;9.976;2022-09-16T08:55:40;14.10;99.90
14749;DHT22;7466;53.574;9.976;2022-09-16T08:58:14;14.60;99.90
14749;DHT22;7466;53.574;9.976;2022-09-16T09:00:42;14.80;99.90
14749;DHT22;7466;53.574;9.976;2022-09-16T09:03:15;14.30;99.90
14749;DHT22;7466;53.574;9.976;2022-09-16T09:05:48;14.50;99.90
14749;DHT22;7466;53.574;9.976;2022-09-16T09:08:30;15.00;99.90
14749;DHT22;7466;53.574;9.976;2022-09-16T09:11:02;15.20;99.90
14749;DHT22;7466;53.574;9.976;2022-09-16T09:13:41;15.60;1.00
14749;DHT22;7466;53.574;9.976;2022-09-16T09:16:16;16.20;1.00
14749;DHT22;7466;53.574;9.976;2022-09-16T09:18:52;16.50;1.00
14749;DHT22;7466;53.574;9.976;2022-09-16T09:21:30;15.90;1.00
14749;DHT22;7466;53.574;9.976;2022-09-16T09:24:16;15.60;1.00
14749;DHT22;7466;53.574;9.976;2022-09-16T09:26:48;15.50;1.00
14749;DHT22;7466;53.574;9.976;2022-09-16T09:29:37;14.90;1.00
14749;DHT22;7466;53.574;9.976;2022-09-16T09:32:16;14.50;1.00
14749;DHT22;7466;53.574;9.976;2022-09-16T09:34:58;14.10;67.30
14749;DHT22;7466;53.574;9.976;2022-09-16T09:37:52;13.80;99.90
14749;DHT22;7466;53.574;9.976;2022-09-16T09:40:29;13.30;99.90
14749;DHT22;7466;53.574;9.976;2022-09-16T09:43:04;13.00;99.90
14749;DHT22;7466;53.574;9.976;2022-09-16T09:45:36;13.30;99.90
14749;DHT22;7466;53.574;9.976;2022-09-16T09:48:12;13.80;99.90
14749;DHT22;7466;53.574;9.976;2022-09-16T09:50:44;14.30;48.90
14749;DHT22;7466;53.574;9.976;2022-09-16T09:53:16;14.80;13.60
14749;DHT22;7466;53.574;9.976;2022-09-16T09:55:44;15.10;1.00
14749;DHT22;7466;53.574;9.976;2022-09-16T09:58:18;15.60;1.00
14749;DHT22;7466;53.574;9.976;2022-09-16T10:00:48;15.90;1.00
14749;DHT22;7466;53.574;9.976;2022-09-16T10:03:18;15.70;1.00
14749;DHT22;7466;53.574;9.976;2022-09-16T10:05:46;15.90;1.00
14749;DHT22;7466;53.574;9.976;2022-09-16T10:08:20;15.60;1.00
14749;DHT22;7466;53.574;9.976;2022-09-16T10:10:49;15.60;1.00
14749;DHT22;7466;53.574;9.976;2022-09-16T10:13:17;16.20;1.00
14749;DHT22;7466;53.574;9.976;2022-09-16T10:15:46;16.60;1.00
14749;DHT22;7466;53.574;9.976;2022-09-16T10:18:23;17.10;1.00
14749;DHT22;7466;53.574;9.976;2022-09-16T10:20:59;17.40;1.00
14749;DHT22;7466;53.574;9.976;2022-09-16T10:23:26;17.20;1.00
14749;DHT22;7466;53.574;9.976;2022-09-16T10:26:12;16.90;1.00
14749;DHT22;7466;53.574;9.976;2022-09-16T10:28:52;17.00;1.00
14749;DHT22;7466;53.574;9.976;2022-09-16T10:31:20;17.40;1.00
14749;DHT22;7466;53.574;9.976;2022-09-16T10:33:50;17.40;1.00
14749;DHT22;7466;53.574;9.976;2022-09-16T10:36:20;17.10;1.00
14749;DHT22;7466;53.574;9.976;2022-09-16T10:38:50;17.20;1.00
14749;DHT22;7466;53.574;9.976;2022-09-16T10:41:21;17.00;1.00
14749;DHT22;7466;53.574;9.976;2022-09-16T10:43:50;17.40;1.00
14749;DHT22;7466;53.574;9.976;2022-09-16T10:46:18;17.70;1.00
14749;DHT22;7466;53.574;9.976;2022-09-16T10:48:47;17.60;1.00
14749;DHT22;7466;53.574;9.976;2022-09-16T10:51:30;17.30;1.00
14749;DHT22;7466;53.574;9.976;2022-09-16T10:54:00;17.80;1.00
14749;DHT22;7466;53.574;9.976;2022-09-16T10:56:28;18.20;1.00
14749;DHT22;7466;53.574;9.976;2022-09-16T10:59:03;18.10;1.00
14749;DHT22;7466;53.574;9.976;2022-09-16T11:01:36;17.90;1.00
14749;DHT22;7466;53.574;9.976;2022-09-16T11:04:28;18.20;1.00
14749;DHT22;7466;53.574;9.976;2022-09-16T11:07:06;18.00;1.00
14749;DHT22;7466;53.574;9.976;2022-09-16T11:09:44;17.70;1.00
14749;DHT22;7466;53.574;9.976;2022-09-16T11:12:33;17.70;1.00
14749;DHT22;7466;53.574;9.976;2022-09-16T11:15:14;17.80;1.00
14749;DHT22;7466;53.574;9.976;2022-09-16T11:17:55;17.20;1.00
14749;DHT22;7466;53.574;9.976;2022-09-16T11:20:46;14.90;1.00
14749;DHT22;7466;53.574;9.976;2022-09-16T11:23:26;14.20;25.50
14749;DHT22;7466;53.574;9.976;2022-09-16T11:25:59;13.70;71.70
14749;DHT22;7466;53.574;9.976;2022-09-16T11:31:35;13.60;96.80
14749;DHT22;7466;53.574;9.976;2022-09-16T11:34:13;13.60;90.50
14749;DHT22;7466;53.574;9.976;2022-09-16T11:36:54;14.20;47.50
14749;DHT22;7466;53.574;9.976;2022-09-16T11:39:36;14.40;9.70
14749;DHT22;7466;53.574;9.976;2022-09-16T11:42:14;14.60;23.40
14749;DHT22;7466;53.574;9.976;2022-09-16T11:44:46;15.20;1.00
14749;DHT22;7466;53.574;9.976;2022-09-16T11:47:24;15.30;1.00
14749;DHT22;7466;53.574;9.976;2022-09-16T11:50:16;15.00;1.00
14749;DHT22;7466;53.574;9.976;2022-09-16T11:52:59;15.50;1.00
14749;DHT22;7466;53.574;9.976;2022-09-16T11:55:41;16.30;1.00
14749;DHT22;7466;53.574;9.976;2022-09-16T11:58:23;16.80;1.00
14749;DHT22;7466;53.574;9.976;2022-09-16T12:00:54;17.40;1.00
14749;DHT22;7466;53.574;9.976;2022-09-16T12:03:27;17.40;1.00
14749;DHT22;7466;53.574;9.976;2022-09-16T12:06:00;17.70;1.00
14749;DHT22;7466;53.574;9.976;2022-09-16T12:08:42;17.60;1.00
14749;DHT22;7466;53.574;9.976;2022-09-16T12:11:19;17.30;1.00
14749;DHT22;7466;53.574;9.976;2022-09-16T12:13:49;17.20;1.00
14749;DHT22;7466;53.574;9.976;2022-09-16T12:16:22;17.50;1.00
14749;DHT22;7466;53.574;9.976;2022-09-16T12:18:52;17.80;1.00
14749;DHT22;7466;53.574;9.976;2022-09-16T12:21:23;17.10;1.00
14749;DHT22;7466;53.574;9.976;2022-09-16T12:23:55;16.70;1.00
14749;DHT22;7466;53.574;9.976;2022-09-16T12:26:29;16.30;1.00
14749;DHT22;7466;53.574;9.976;2022-09-16T12:29:02;15.30;74.00
14749;DHT22;7466;53.574;9.976;2022-09-16T12:31:35;14.60;99.90
14749;DHT22;7466;53.574;9.976;2022-09-16T12:34:09;14.20;99.90
14749;DHT22;7466;53.574;9.976;2022-09-16T12:36:41;14.30;99.90
14749;DHT22;7466;53.574;9.976;2022-09-16T12:39:10;14.70;99.90
14749;DHT22;7466;53.574;9.976;2022-09-16T12:41:50;15.20;99.90
14749;DHT22;7466;53.574;9.976;2022-09-16T12:44:45;15.60;79.40
14749;DHT22;7466;53.574;9.976;2022-09-16T12:47:36;16.30;21.80
14749;DHT22;7466;53.574;9.976;2022-09-16T12:50:32;16.10;1.00
14749;DHT22;7466;53.574;9.976;2022-09-16T12:56:08;16.00;1.00
14749;DHT22;7466;53.574;9.976;2022-09-16T13:01:43;15.10;8.30
14749;DHT22;7466;53.574;9.976;2022-09-16T13:04:15;14.70;34.60
14749;DHT22;7466;53.574;9.976;2022-09-16T13:06:46;14.90;67.40
14749;DHT22;7466;53.574;9.976;2022-09-16T13:09:20;15.00;4.20
14749;DHT22;7466;53.574;9.976;2022-09-16T13:11:56;15.50;1.00
14749;DHT22;7466;53.574;9.976;2022-09-16T13:14:30;15.60;1.00
14749;DHT22;7466;53.574;9.976;2022-09-16T13:16:59;15.20;1.00
14749;DHT22;7466;53.574;9.976;2022-09-16T13:19:34;15.10;1.00
14749;DHT22;7466;53.574;9.976;2022-09-16T13:22:13;14.70;9.40
14749;DHT22;7466;53.574;9.976;2022-09-16T13:24:43;13.70;54.60
14749;DHT22;7466;53.574;9.976;2022-09-16T13:27:29;13.40;99.90
14749;DHT22;7466;53.574;9.976;2022-09-16T13:30:27;13.40;99.90
14749;DHT22;7466;53.574;9.976;2022-09-16T13:33:00;13.30;99.90
14749;DHT22;7466;53.574;9.976;2022-09-16T13:35:37;13.10;99.90
14749;DHT22;7466;53.574;9.976;2022-09-16T13:38:21;13.20;99.90
14749;DHT22;7466;53.574;9.976;2022-09-16T13:40:53;13.10;99.90
14749;DHT22;7466;53.574;9.976;2022-09-16T13:43:32;13.10;99.90
14749;DHT22;7466;53.574;9.976;2022-09-16T13:46:05;13.00;99.90
14749;DHT22;7466;53.574;9.976;2022-09-16T13:48:37;12.80;99.90
14749;DHT22;7466;53.574;9.976;2022-09-16T13:51:17;12.80;99.90
14749;DHT22;7466;53.574;9.976;2022-09-16T13:53:46;12.60;99.90
14749;DHT22;7466;53.574;9.976;2022-09-16T13:56:39;12.50;99.90
14749;DHT22;7466;53.574;9.976;2022-09-16T13:59:20;12.40;99.90
14749;DHT22;7466;53.574;9.976;2022-09-16T14:02:01;12.30;99.90
14749;DHT22;7466;53.574;9.976;2022-09-16T14:04:44;12.20;99.90
14749;DHT22;7466;53.574;9.976;2022-09-16T14:07:24;12.00;99.90
14749;DHT22;7466;53.574;9.976;2022-09-16T14:09:58;11.90;99.90
14749;DHT22;7466;53.574;9.976;2022-09-16T14:12:32;11.80;99.90
14749;DHT22;7466;53.574;9.976;2022-09-16T14:15:04;11.70;99.90
14749;DHT22;7466;53.574;9.976;2022-09-16T14:17:38;11.50;99.90
14749;DHT22;7466;53.574;9.976;2022-09-16T14:20:12;11.50;99.90
14749;DHT22;7466;53.574;9.976;2022-09-16T14:22:41;11.50;99.90
14749;DHT22;7466;53.574;9.976;2022-09-16T14:25:25;11.40;99.90
14749;DHT22;7466;53.574;9.976;2022-09-16T14:27:52;11.30;99.90
14749;DHT22;7466;53.574;9.976;2022-09-16T14:30:31;11.30;99.90
14749;DHT22;7466;53.574;9.976;2022-09-16T14:33:00;11.20;99.90
14749;DHT22;7466;53.574;9.976;2022-09-16T14:35:28;11.10;99.90
14749;DHT22;7466;53.574;9.976;2022-09-16T14:37:59;11.10;99.90
14749;DHT22;7466;53.574;9.976;2022-09-16T14:40:28;11.10;99.90
14749;DHT22;7466;53.574;9.976;2022-09-16T14:42:58;11.20;99.90
14749;DHT22;7466;53.574;9.976;2022-09-16T14:45:26;11.10;99.90
14749;DHT22;7466;53.574;9.976;2022-09-16T14:47:53;11.10;99.90
14749;DHT22;7466;53.574;9.976;2022-09-16T14:50:25;11.10;99.90
14749;DHT22;7466;53.574;9.976;2022-09-16T14:52:54;11.10;99.90
14749;DHT22;7466;53.574;9.976;2022-09-16T14:55:24;11.10;99.90
14749;DHT22;7466;53.574;9.976;2022-09-16T14:57:51;11.10;99.90
14749;DHT22;7466;53.574;9.976;2022-09-16T15:00:18;11.00;99.90
14749;DHT22;7466;53.574;9.976;2022-09-16T15:02:47;11.10;99.90
14749;DHT22;7466;53.574;9.976;2022-09-16T15:05:22;11.20;99.90
14749;DHT22;7466;53.574;9.976;2022-09-16T15:07:51;11.20;99.90
14749;DHT22;7466;53.574;9.976;2022-09-16T15:10:21;11.20;99.90
14749;DHT22;7466;53.574;9.976;2022-09-16T15:12:50;11.20;99.90
14749;DHT22;7466;53.574;9.976;2022-09-16T15:15:21;11.30;99.90
14749;DHT22;7466;53.574;9.976;2022-09-16T15:17:59;11.30;99.90
14749;DHT22;7466;53.574;9.976;2022-09-16T15:20:31;11.30;99.90
14749;DHT22;7466;53.574;9.976;2022-09-16T15:22:59;11.30;99.90
14749;DHT22;7466;53.574;9.976;2022-09-16T15:25:30;11.30;99.90
14749;DHT22;7466;53.574;9.976;2022-09-16T15:28:04;11.30;99.90
14749;DHT22;7466;53.574;9.976;2022-09-16T15:30:32;11.30;99.90
14749;DHT22;7466;53.574;9.976;2022-09-16T15:32:59;11.40;99.90
14749;DHT22;7466;53.574;9.976;2022-09-16T15:35:27;11.50;99.90
14749;DHT22;7466;53.574;9.976;2022-09-16T15:37:57;11.60;99.90
14749;DHT22;7466;53.574;9.976;2022-09-16T15:40:37;11.60;99.90
14749;DHT22;7466;53.574;9.976;2022-09-16T15:43:12;11.80;99.90
14749;DHT22;7466;53.574;9.976;2022-09-16T15:45:39;11.90;99.90
14749;DHT22;7466;53.574;9.976;2022-09-16T15:48:14;11.90;99.90
14749;DHT22;7466;53.574;9.976;2022-09-16T15:50:45;11.90;99.90
14749;DHT22;7466;53.574;9.976;2022-09-16T15:53:16;12.00;99.90
14749;DHT22;7466;53.574;9.976;2022-09-16T15:55:52;12.00;99.90
14749;DHT22;7466;53.574;9.976;2022-09-16T15:58:27;12.00;99.90
14749;DHT22;7466;53.574;9.976;2022-09-16T16:01:09;12.00;99.90
14749;DHT22;7466;53.574;9.976;2022-09-16T16:03:53;12.00;99.90
14749;DHT22;7466;53.574;9.976;2022-09-16T16:06:46;12.00;99.90
14749;DHT22;7466;53.574;9.976;2022-09-16T16:09:41;12.00;99.90
14749;DHT22;7466;53.574;9.976;2022-09-16T16:12:11;12.10;99.90
14749;DHT22;7466;53.574;9.976;2022-09-16T16:14:39;12.10;99.90
14749;DHT22;7466;53.574;9.976;2022-09-16T16:17:08;12.10;99.90
14749;DHT22;7466;53.574;9.976;2022-09-16T16:19:35;12.10;99.90
14749;DHT22;7466;53.574;9.976;2022-09-16T16:22:04;12.10;99.90
14749;DHT22;7466;53.574;9.976;2022-09-16T16:24:31;12.00;99.90
14749;DHT22;7466;53.574;9.976;2022-09-16T16:26:59;12.10;99.90
14749;DHT22;7466;53.574;9.976;2022-09-16T16:29:26;12.10;99.90